createdAt,value
2018-01-06T00:01:25.631Z,5.97
2018-01-06T00:04:08.646Z,1.90
2018-01-06T00:06:51.167Z,2.43
2018-01-06T00:09:34.214Z,4.50
2018-01-06T00:12:16.900Z,2.40
2018-01-06T00:15:00.338Z,2.97
2018-01-06T00:17:43.233Z,2.90
2018-01-06T00:20:25.924Z,3.10
2018-01-06T00:23:08.166Z,3.57
2018-01-06T00:25:50.787Z,3.10
2018-01-06T00:28:40.253Z,4.50
2018-01-06T00:31:23.055Z,1.93
2018-01-06T00:34:05.669Z,2.30
2018-01-06T00:36:48.203Z,2.43
2018-01-06T00:39:30.813Z,3.87
2018-01-06T00:42:13.443Z,3.50
2018-01-06T00:44:56.852Z,2.23
2018-01-06T00:47:39.746Z,2.50
2018-01-06T00:50:22.350Z,2.37
2018-01-06T00:53:04.765Z,9.03
2018-01-06T00:55:50.461Z,3.20
2018-01-06T00:58:32.858Z,2.60
2018-01-06T01:01:15.568Z,4.23
2018-01-06T01:03:58.956Z,3.67
2018-01-06T01:06:48.964Z,2.30
2018-01-06T01:09:31.419Z,4.70
2018-01-06T01:12:14.138Z,4.40
2018-01-06T01:14:58.553Z,3.10
2018-01-06T01:17:41.491Z,2.40
2018-01-06T01:20:24.110Z,3.90
2018-01-06T01:23:07.641Z,2.27
2018-01-06T01:25:50.470Z,5.50
2018-01-06T01:28:32.967Z,1.80
2018-01-06T01:31:16.694Z,4.43
2018-01-06T01:33:59.648Z,3.50
2018-01-06T01:36:42.508Z,8.73
2018-01-06T01:39:25.020Z,7.43
2018-01-06T01:42:11.673Z,4.50
2018-01-06T01:44:54.469Z,3.33
2018-01-06T01:47:37.118Z,3.80
2018-01-06T01:50:19.756Z,4.80
2018-01-06T01:53:02.390Z,6.80
2018-01-06T01:55:45.208Z,4.67
2018-01-06T01:58:27.824Z,2.70
2018-01-06T02:01:16.444Z,3.90
2018-01-06T02:03:59.037Z,3.20
2018-01-06T02:06:41.845Z,5.47
2018-01-06T02:09:24.710Z,6.50
2018-01-06T02:12:07.669Z,4.57
2018-01-06T02:14:50.192Z,4.67
2018-01-06T02:17:32.810Z,5.63
2018-01-06T02:20:15.413Z,8.80
2018-01-06T02:22:58.035Z,8.40
2018-01-06T02:25:40.921Z,3.70
2018-01-06T02:28:23.679Z,6.43
2018-01-06T02:31:06.230Z,5.57
2018-01-06T02:33:48.758Z,5.83
2018-01-06T02:36:31.564Z,3.40
2018-01-06T02:39:14.287Z,4.70
2018-01-06T02:41:56.899Z,4.20
2018-01-06T02:44:39.836Z,9.90
2018-01-06T02:47:22.245Z,7.30
2018-01-06T02:50:11.101Z,3.57
2018-01-06T02:52:53.658Z,9.10
2018-01-06T02:55:36.481Z,6.47
2018-01-06T02:58:18.911Z,7.87
2018-01-06T03:01:01.756Z,7.93
2018-01-06T03:03:44.627Z,7.50
2018-01-06T03:06:27.379Z,11.90
2018-01-06T03:09:09.948Z,5.10
2018-01-06T03:11:52.663Z,8.17
2018-01-06T03:14:35.309Z,8.60
2018-01-06T03:17:17.736Z,5.30
2018-01-06T03:20:00.297Z,7.20
2018-01-06T03:22:43.155Z,7.13
2018-01-06T03:25:25.975Z,9.87
2018-01-06T03:28:08.734Z,5.47
2018-01-06T03:30:50.935Z,10.73
2018-01-06T03:33:40.669Z,8.83
2018-01-06T03:36:23.097Z,6.63
2018-01-06T03:39:10.801Z,5.93
2018-01-06T03:41:53.351Z,15.90
2018-01-06T03:44:36.414Z,4.97
2018-01-06T03:47:18.901Z,11.73
2018-01-06T03:50:01.866Z,6.20
2018-01-06T03:52:44.739Z,8.10
2018-01-06T03:55:27.317Z,15.87
2018-01-06T03:58:09.859Z,15.93
2018-01-06T04:00:52.606Z,13.07
2018-01-06T04:03:35.262Z,9.93
2018-01-06T04:06:17.905Z,6.27
2018-01-06T04:09:00.614Z,5.50
2018-01-06T04:11:43.280Z,8.27
2018-01-06T04:14:25.919Z,8.00
2018-01-06T04:17:08.618Z,8.40
2018-01-06T04:19:51.063Z,9.57
2018-01-06T04:22:33.686Z,9.70
2018-01-06T04:25:16.307Z,7.13
2018-01-06T04:27:59.027Z,7.93
2018-01-06T04:30:41.685Z,6.70
2018-01-06T04:33:24.417Z,19.40
2018-01-06T04:36:06.954Z,7.83
2018-01-06T04:38:49.411Z,14.17
2018-01-06T04:41:42.962Z,9.93
2018-01-06T04:44:25.928Z,13.27
2018-01-06T04:47:08.834Z,11.03
2018-01-06T04:49:51.182Z,11.77
2018-01-06T04:52:34.392Z,8.13
2018-01-06T04:55:16.619Z,13.83
2018-01-06T04:57:59.957Z,7.50
2018-01-06T05:00:42.747Z,8.73
2018-01-06T05:03:25.546Z,10.07
2018-01-06T05:06:15.549Z,10.83
2018-01-06T05:08:58.005Z,20.83
2018-01-06T05:11:40.781Z,8.13
2018-01-06T05:14:23.556Z,15.43
2018-01-06T05:17:06.131Z,16.83
2018-01-06T05:19:48.950Z,18.07
2018-01-06T05:22:32.981Z,26.30
2018-01-06T05:25:15.442Z,18.73
2018-01-06T05:27:58.099Z,34.50
2018-01-06T05:30:40.876Z,28.63
2018-01-06T05:33:23.658Z,33.50
2018-01-06T05:36:06.707Z,22.50
2018-01-06T05:38:49.310Z,28.57
2018-01-06T05:41:31.810Z,18.40
2018-01-06T05:44:14.663Z,14.00
2018-01-06T05:46:57.391Z,12.40
2018-01-06T05:49:40.283Z,13.33
2018-01-06T05:52:23.621Z,23.77
2018-01-06T05:55:06.478Z,13.63
2018-01-06T05:57:49.139Z,15.90
2018-01-06T06:00:31.682Z,25.20
2018-01-06T06:03:14.425Z,15.23
2018-01-06T06:05:56.961Z,9.60
2018-01-06T06:08:39.796Z,8.77
2018-01-06T06:11:22.389Z,14.30
2018-01-06T06:14:05.141Z,15.83
2018-01-06T06:16:47.899Z,17.03
2018-01-06T06:19:30.549Z,9.17
2018-01-06T06:22:12.963Z,16.70
2018-01-06T06:24:55.526Z,14.50
2018-01-06T06:27:38.091Z,15.00
2018-01-06T06:30:21.037Z,10.63
2018-01-06T06:33:03.721Z,7.23
2018-01-06T06:35:46.648Z,10.30
2018-01-06T06:38:35.279Z,13.50
2018-01-06T06:41:18.546Z,10.70
2018-01-06T06:44:01.325Z,8.70
2018-01-06T06:46:44.829Z,10.10
2018-01-06T06:49:27.618Z,11.63
2018-01-06T06:52:10.470Z,11.83
2018-01-06T06:54:52.971Z,7.27
2018-01-06T06:57:35.569Z,6.63
2018-01-06T07:00:18.082Z,15.90
2018-01-06T07:03:00.766Z,9.70
2018-01-06T07:05:43.438Z,5.43
2018-01-06T07:08:26.005Z,14.30
2018-01-06T07:11:08.651Z,11.43
2018-01-06T07:13:51.506Z,20.20
2018-01-06T07:16:34.015Z,8.90
2018-01-06T07:19:16.815Z,22.77
2018-01-06T07:21:59.760Z,4.80
2018-01-06T07:24:42.291Z,11.57
2018-01-06T07:27:24.988Z,15.43
2018-01-06T07:30:07.560Z,8.40
2018-01-06T07:32:50.450Z,10.37
2018-01-06T07:35:32.902Z,11.00
2018-01-06T07:38:17.566Z,9.33
2018-01-06T07:41:00.469Z,11.17
2018-01-06T07:43:43.035Z,8.70
2018-01-06T07:46:25.601Z,7.17
2018-01-06T07:49:08.559Z,5.70
2018-01-06T07:51:50.983Z,8.90
2018-01-06T07:54:33.491Z,5.43
2018-01-06T07:57:16.135Z,15.23
2018-01-06T07:59:58.841Z,14.30
2018-01-06T08:02:48.039Z,10.70
2018-01-06T08:05:30.551Z,11.03
2018-01-06T08:08:13.214Z,5.53
2018-01-06T08:10:56.547Z,8.17
2018-01-06T08:13:42.668Z,5.83
2018-01-06T08:16:25.121Z,8.17
2018-01-06T08:19:07.764Z,7.47
2018-01-06T08:21:50.408Z,8.17
2018-01-06T08:24:32.985Z,8.43
2018-01-06T08:27:15.496Z,10.87
2018-01-06T08:29:58.097Z,6.33
2018-01-06T08:32:40.754Z,25.03
2018-01-06T08:35:23.476Z,60.47
2018-01-06T08:38:05.866Z,46.13
2018-01-06T08:40:49.338Z,44.07
2018-01-06T08:43:32.286Z,70.37
2018-01-06T08:46:14.790Z,53.00
2018-01-06T08:48:57.486Z,50.57
2018-01-06T08:51:39.826Z,49.50
2018-01-06T08:54:35.055Z,48.87
2018-01-06T08:57:18.835Z,33.40
2018-01-06T09:00:01.791Z,41.47
2018-01-06T09:02:44.404Z,43.87
2018-01-06T09:05:39.501Z,37.30
2018-01-06T09:08:22.561Z,32.93
2018-01-06T09:11:05.022Z,22.93
2018-01-06T09:13:47.523Z,36.70
2018-01-06T09:16:30.122Z,14.10
2018-01-06T09:19:12.756Z,17.90
2018-01-06T09:21:55.282Z,21.30
2018-01-06T09:24:37.824Z,19.40
2018-01-06T09:27:20.421Z,35.80
2018-01-06T09:30:08.843Z,32.33
2018-01-06T09:32:51.765Z,37.17
2018-01-06T09:35:34.374Z,17.53
2018-01-06T09:38:16.913Z,25.40
2018-01-06T09:40:59.324Z,12.27
2018-01-06T09:43:41.787Z,12.80
2018-01-06T09:46:24.406Z,14.13
2018-01-06T09:49:07.029Z,13.10
2018-01-06T09:51:50.361Z,27.40
2018-01-06T09:54:33.098Z,11.50
2018-01-06T09:57:15.638Z,14.70
2018-01-06T10:00:05.373Z,24.50
2018-01-06T10:02:47.908Z,27.27
2018-01-06T10:05:31.946Z,19.30
2018-01-06T10:08:21.481Z,32.57
2018-01-06T10:11:04.278Z,19.10
2018-01-06T10:13:46.775Z,23.83
2018-01-06T10:16:29.622Z,16.50
2018-01-06T10:19:18.063Z,24.07
2018-01-06T10:22:00.554Z,28.20
2018-01-06T10:24:43.346Z,21.93
2018-01-06T10:27:25.794Z,41.20
2018-01-06T10:30:08.498Z,19.43
2018-01-06T10:32:52.030Z,32.77
2018-01-06T10:35:42.392Z,25.50
2018-01-06T10:38:24.919Z,18.37
2018-01-06T10:41:07.522Z,18.63
2018-01-06T10:43:50.292Z,14.63
2018-01-06T10:46:32.905Z,9.83
2018-01-06T10:49:15.428Z,23.50
2018-01-06T10:51:58.041Z,18.50
2018-01-06T10:54:40.617Z,19.07
2018-01-06T10:57:23.294Z,20.00
2018-01-06T11:00:06.569Z,21.60
2018-01-06T11:02:49.509Z,33.30
2018-01-06T11:05:31.931Z,23.73
2018-01-06T11:08:14.584Z,28.03
2018-01-06T11:10:57.191Z,36.37
2018-01-06T11:13:39.953Z,28.70
2018-01-06T11:16:22.328Z,26.30
2018-01-06T11:19:04.814Z,37.30
2018-01-06T11:21:47.463Z,29.57
2018-01-06T11:24:30.301Z,27.60
2018-01-06T11:27:14.532Z,16.47
2018-01-06T11:29:57.359Z,17.80
2018-01-06T11:32:40.062Z,11.77
2018-01-06T11:35:22.477Z,23.73
2018-01-06T11:38:05.026Z,15.33
2018-01-06T11:40:47.558Z,21.87
2018-01-06T11:43:30.206Z,18.23
2018-01-06T11:46:13.556Z,23.40
2018-01-06T11:48:56.344Z,21.33
2018-01-06T11:51:39.071Z,31.40
2018-01-06T11:54:29.453Z,21.93
2018-01-06T11:57:13.298Z,29.17
2018-01-06T11:59:55.790Z,18.30
2018-01-06T12:02:38.592Z,22.67
2018-01-06T12:05:22.158Z,20.53
2018-01-06T12:08:05.116Z,20.93
2018-01-06T12:10:48.666Z,17.17
2018-01-06T12:13:31.607Z,18.53
2018-01-06T12:16:14.193Z,15.57
2018-01-06T12:18:56.776Z,24.50
2018-01-06T12:21:39.386Z,17.97
2018-01-06T12:24:21.991Z,16.00
2018-01-06T12:27:04.517Z,23.07
2018-01-06T12:29:47.318Z,21.67
2018-01-06T12:32:30.206Z,25.00
2018-01-06T12:35:13.110Z,16.73
2018-01-06T12:37:55.578Z,24.50
2018-01-06T12:40:51.770Z,21.90
2018-01-06T12:43:34.581Z,21.50
2018-01-06T12:46:17.287Z,13.97
2018-01-06T12:49:00.039Z,22.87
2018-01-06T12:51:42.421Z,20.17
2018-01-06T12:54:25.114Z,34.17
2018-01-06T12:57:07.791Z,18.63
2018-01-06T12:59:50.386Z,17.33
2018-01-06T13:02:32.994Z,21.23
2018-01-06T13:05:15.616Z,22.73
2018-01-06T13:07:58.301Z,16.37
2018-01-06T13:10:44.514Z,19.00
2018-01-06T13:13:27.631Z,24.63
2018-01-06T13:16:17.982Z,17.73
2018-01-06T13:19:00.892Z,19.17
2018-01-06T13:21:43.653Z,13.77
2018-01-06T13:24:33.777Z,13.07
2018-01-06T13:27:16.529Z,16.87
2018-01-06T13:29:59.219Z,17.47
2018-01-06T13:32:41.822Z,12.63
2018-01-06T13:35:24.556Z,15.73
2018-01-06T13:38:07.193Z,16.73
2018-01-06T13:40:49.817Z,14.33
2018-01-06T13:43:45.748Z,14.97
2018-01-06T13:46:28.014Z,19.00
2018-01-06T13:49:15.549Z,16.53
2018-01-06T13:52:00.057Z,10.77
2018-01-06T13:54:42.876Z,11.47
2018-01-06T13:57:25.823Z,11.50
2018-01-06T14:00:08.422Z,12.10
2018-01-06T14:02:51.162Z,13.10
2018-01-06T14:05:34.475Z,9.40
2018-01-06T14:08:18.068Z,29.23
2018-01-06T14:11:00.943Z,12.30
2018-01-06T14:13:43.443Z,14.83
2018-01-06T14:16:26.256Z,19.40
2018-01-06T14:19:08.617Z,17.80
2018-01-06T14:21:51.028Z,18.40
2018-01-06T14:24:33.894Z,16.27
2018-01-06T14:27:16.435Z,14.47
2018-01-06T14:29:59.758Z,11.30
2018-01-06T14:32:44.465Z,13.47
2018-01-06T14:35:27.250Z,10.80
2018-01-06T14:38:09.790Z,14.50
2018-01-06T14:40:52.339Z,17.87
2018-01-06T14:43:34.988Z,14.83
2018-01-06T14:46:17.631Z,31.20
2018-01-06T14:49:00.421Z,23.10
2018-01-06T14:51:43.119Z,16.57
2018-01-06T14:54:25.277Z,21.17
2018-01-06T14:57:07.755Z,35.10
2018-01-06T14:59:51.213Z,17.30
2018-01-06T15:02:34.065Z,14.13
2018-01-06T15:05:16.686Z,22.80
2018-01-06T15:08:06.127Z,21.73
2018-01-06T15:10:48.940Z,19.30
2018-01-06T15:13:31.411Z,11.90
2018-01-06T15:16:17.925Z,16.20
2018-01-06T15:19:03.188Z,25.33
2018-01-06T15:21:45.420Z,16.80
2018-01-06T15:24:27.966Z,16.40
2018-01-06T15:27:10.401Z,22.27
2018-01-06T15:29:53.146Z,22.43
2018-01-06T15:32:35.707Z,19.73
2018-01-06T15:35:18.286Z,23.17
2018-01-06T15:38:00.910Z,15.43
2018-01-06T15:40:45.305Z,11.67
2018-01-06T15:43:28.096Z,19.63
2018-01-06T15:46:10.950Z,14.33
2018-01-06T15:48:53.273Z,19.93
2018-01-06T15:51:43.011Z,21.07
2018-01-06T15:54:25.550Z,18.00
2018-01-06T15:57:08.705Z,26.30
2018-01-06T15:59:51.446Z,19.43
2018-01-06T16:02:34.153Z,24.13
2018-01-06T16:05:16.783Z,23.27
2018-01-06T16:07:59.494Z,13.60
2018-01-06T16:10:43.845Z,15.80
2018-01-06T16:13:15.366Z,19.50
2018-01-06T16:15:58.294Z,17.93
2018-01-06T16:18:40.890Z,29.60
2018-01-06T16:21:25.053Z,20.03
2018-01-06T16:24:07.817Z,31.50
2018-01-06T16:26:50.459Z,28.63
2018-01-06T16:29:33.194Z,29.77
2018-01-06T16:32:18.290Z,31.83
2018-01-06T16:35:01.249Z,27.00
2018-01-06T16:37:43.831Z,28.10
2018-01-06T16:40:26.520Z,25.67
2018-01-06T16:43:09.596Z,30.97
2018-01-06T16:45:52.497Z,18.07
2018-01-06T16:48:35.078Z,19.23
2018-01-06T16:51:17.639Z,23.80
2018-01-06T16:54:00.212Z,27.97
2018-01-06T16:56:42.847Z,20.63
2018-01-06T16:59:25.375Z,39.60
2018-01-06T17:02:07.987Z,27.20
2018-01-06T17:08:04.047Z,31.90
2018-01-06T17:10:46.650Z,41.47
2018-01-06T17:13:29.095Z,25.47
2018-01-06T17:16:12.364Z,24.33
2018-01-06T17:18:55.193Z,35.40
2018-01-06T17:21:37.692Z,33.40
2018-01-06T17:24:20.975Z,26.17
2018-01-06T17:27:03.426Z,24.40
2018-01-06T17:29:51.447Z,37.13
2018-01-06T17:32:34.449Z,32.77
2018-01-06T17:35:16.960Z,30.77
2018-01-06T17:37:59.471Z,39.87
2018-01-06T17:40:42.995Z,20.80
2018-01-06T17:43:25.816Z,24.93
2018-01-06T17:46:09.454Z,27.93
2018-01-06T17:48:51.896Z,20.90
2018-01-06T17:51:40.711Z,32.10
2018-01-06T17:54:23.270Z,33.17
2018-01-06T17:57:05.735Z,33.87
2018-01-06T17:59:48.386Z,29.63
2018-01-06T18:02:31.590Z,29.83
2018-01-06T18:05:28.169Z,33.57
2018-01-06T18:08:10.835Z,27.17
2018-01-06T18:10:53.378Z,23.43
2018-01-06T18:13:36.585Z,29.67
2018-01-06T18:16:19.422Z,35.90
2018-01-06T18:19:01.984Z,21.83
2018-01-06T18:21:44.553Z,23.97
2018-01-06T18:24:27.406Z,33.10
2018-01-06T18:27:10.576Z,37.90
2018-01-06T18:29:53.624Z,44.43
2018-01-06T18:32:42.191Z,40.60
2018-01-06T18:35:30.875Z,29.60
2018-01-06T18:38:21.242Z,34.53
2018-01-06T18:41:03.985Z,33.30
2018-01-06T18:43:46.693Z,36.33
2018-01-06T18:46:29.211Z,36.93
2018-01-06T18:49:11.998Z,38.33
2018-01-06T18:51:59.278Z,45.50
2018-01-06T18:54:42.149Z,32.60
2018-01-06T18:57:24.805Z,27.37
2018-01-06T19:00:15.104Z,41.13
2018-01-06T19:02:57.858Z,43.03
2018-01-06T19:05:53.605Z,31.33
2018-01-06T19:08:36.121Z,32.90
2018-01-06T19:11:19.757Z,35.07
2018-01-06T19:14:02.473Z,21.70
2018-01-06T19:16:45.213Z,52.27
2018-01-06T19:19:28.794Z,36.73
2018-01-06T19:22:11.438Z,34.00
2018-01-06T19:24:56.000Z,40.00
2018-01-06T19:27:38.916Z,28.73
2018-01-06T19:30:22.227Z,40.67
2018-01-06T19:33:05.185Z,23.07
2018-01-06T19:35:48.232Z,38.50
2018-01-06T19:38:31.418Z,41.30
2018-01-06T19:41:14.235Z,43.03
2018-01-06T19:43:58.212Z,39.80
2018-01-06T19:46:47.770Z,28.97
2018-01-06T19:49:30.708Z,29.87
2018-01-06T19:52:12.976Z,30.13
2018-01-06T19:54:55.681Z,37.63
2018-01-06T19:57:38.418Z,32.80
2018-01-06T20:00:21.436Z,38.27
2018-01-06T20:03:04.755Z,51.97
2018-01-06T20:05:47.182Z,33.67
2018-01-06T20:08:33.463Z,35.67
2018-01-06T20:11:16.327Z,48.67
2018-01-06T20:13:58.797Z,37.20
2018-01-06T20:16:53.614Z,33.47
2018-01-06T20:19:36.128Z,34.33
2018-01-06T20:22:18.625Z,42.50
2018-01-06T20:25:01.130Z,34.37
2018-01-06T20:27:43.565Z,33.17
2018-01-06T20:30:26.403Z,38.20
2018-01-06T20:33:08.668Z,34.27
2018-01-06T20:35:51.489Z,43.37
2018-01-06T20:38:34.007Z,25.33
2018-01-06T20:41:16.680Z,47.63
2018-01-06T20:43:59.261Z,34.03
2018-01-06T20:46:41.900Z,48.80
2018-01-06T20:49:24.486Z,36.23
2018-01-06T20:52:07.182Z,42.27
2018-01-06T20:54:50.031Z,31.30
2018-01-06T20:57:32.263Z,44.50
2018-01-06T21:00:14.941Z,43.87
2018-01-06T21:02:57.918Z,30.03
2018-01-06T21:05:41.215Z,62.27
2018-01-06T21:08:23.988Z,55.37
2018-01-06T21:11:06.309Z,46.93
2018-01-06T21:13:48.798Z,35.00
2018-01-06T21:16:31.358Z,33.03
2018-01-06T21:19:13.892Z,39.67
2018-01-06T21:21:57.267Z,59.60
2018-01-06T21:24:40.358Z,66.37
2018-01-06T21:27:23.147Z,44.13
2018-01-06T21:30:05.602Z,64.13
2018-01-06T21:32:54.962Z,52.30
2018-01-06T21:35:37.787Z,50.30
2018-01-06T21:38:20.302Z,43.63
2018-01-06T21:41:03.132Z,58.00
2018-01-06T21:44:00.381Z,47.80
2018-01-06T21:46:43.145Z,70.50
2018-01-06T21:49:25.907Z,89.00
2018-01-06T21:52:08.486Z,66.80
2018-01-06T21:54:51.125Z,58.63
2018-01-06T21:57:33.553Z,92.47
2018-01-06T22:00:16.294Z,53.90
2018-01-06T22:02:59.076Z,64.93
2018-01-06T22:05:41.721Z,75.53
2018-01-06T22:08:24.374Z,71.60
2018-01-06T22:11:06.946Z,73.20
2018-01-06T22:13:49.559Z,102.97
2018-01-06T22:16:32.134Z,52.90
2018-01-06T22:19:14.756Z,96.93
2018-01-06T22:21:58.304Z,58.43
2018-01-06T22:24:40.454Z,53.20
2018-01-06T22:27:22.994Z,54.43
2018-01-06T22:30:05.538Z,80.57
2018-01-06T22:32:48.088Z,76.17
2018-01-06T22:35:30.783Z,57.70
2018-01-06T22:38:13.230Z,63.13
2018-01-06T22:40:56.610Z,70.80
2018-01-06T22:43:39.387Z,53.30
2018-01-06T22:46:21.956Z,48.90
2018-01-06T22:49:04.465Z,48.00
2018-01-06T22:51:47.084Z,61.47
2018-01-06T22:54:29.606Z,36.87
2018-01-06T22:57:12.358Z,26.20
2018-01-06T23:00:02.525Z,34.33
2018-01-06T23:02:45.362Z,91.70
2018-01-06T23:05:28.165Z,80.20
2018-01-06T23:08:10.460Z,64.63
2018-01-06T23:10:53.092Z,47.10
2018-01-06T23:13:39.339Z,69.23
2018-01-06T23:16:28.221Z,128.23
2018-01-06T23:19:10.779Z,77.23
2018-01-06T23:21:53.407Z,46.70
2018-01-06T23:24:35.787Z,35.80
2018-01-06T23:27:18.417Z,41.83
2018-01-06T23:30:00.958Z,37.70
2018-01-06T23:32:43.592Z,47.63
2018-01-06T23:35:26.090Z,43.67
2018-01-06T23:38:14.719Z,60.90
2018-01-06T23:41:05.339Z,60.03
2018-01-06T23:43:48.321Z,67.27
2018-01-06T23:46:31.226Z,49.13
2018-01-06T23:49:19.422Z,55.07
2018-01-06T23:52:02.640Z,37.57
2018-01-06T23:54:45.455Z,39.07
2018-01-06T23:57:32.939Z,56.00
